createdAt,value
2017-11-25T14:51:59.115Z,99553.23
2017-11-25T14:53:05.012Z,99559.29
2017-11-25T14:54:10.140Z,99561.57
2017-11-25T14:55:14.689Z,99556.39
2017-11-25T14:56:19.954Z,99563.81
2017-11-25T14:57:25.632Z,99564.80
2017-11-25T14:58:30.051Z,99558.20
2017-11-25T14:59:34.284Z,99569.39
2017-11-25T15:00:39.499Z,99557.28
2017-11-25T15:01:45.491Z,99552.11
2017-11-25T15:02:50.087Z,99555.36
2017-11-25T15:03:55.746Z,99554.05
2017-11-25T15:05:00.855Z,99558.63
2017-11-25T15:06:07.400Z,99564.63
2017-11-25T15:07:11.765Z,99564.44
2017-11-25T15:08:17.365Z,99562.63
2017-11-25T15:09:22.694Z,99563.58
2017-11-25T15:10:26.985Z,99566.17
2017-11-25T15:11:33.259Z,99571.11
2017-11-25T15:12:38.549Z,99564.33
2017-11-25T15:13:44.148Z,99560.30
2017-11-25T15:14:48.845Z,99566.14
2017-11-25T15:15:55.588Z,99569.02
2017-11-25T15:17:00.547Z,99571.95
2017-11-25T15:18:04.991Z,99571.44
2017-11-25T15:19:09.300Z,99579.10
2017-11-25T15:20:14.989Z,99587.55
2017-11-25T15:21:21.651Z,99589.89
2017-11-25T15:22:26.676Z,99598.78
2017-11-25T15:23:31.909Z,99601.81
2017-11-25T15:24:37.152Z,99602.76
2017-11-25T15:25:41.954Z,99600.70
2017-11-25T15:26:46.500Z,99596.44
2017-11-25T15:27:51.093Z,99606.63
2017-11-25T15:28:55.860Z,99600.79
2017-11-25T15:30:01.417Z,99611.50
2017-11-25T15:31:06.064Z,99611.27
2017-11-25T15:32:11.284Z,99609.96
2017-11-25T15:33:16.594Z,99618.05
2017-11-25T15:34:21.005Z,99617.95
2017-11-25T15:35:26.722Z,99622.55
2017-11-25T15:36:31.637Z,99627.66
2017-11-25T15:37:36.528Z,99628.58
2017-11-25T15:38:41.180Z,99627.07
2017-11-25T15:39:46.450Z,99634.07
2017-11-25T15:40:53.933Z,99638.01
2017-11-25T15:41:58.759Z,99630.32
2017-11-25T15:43:04.841Z,99643.47
2017-11-25T15:44:09.560Z,99633.23
2017-11-25T15:45:13.980Z,99637.96
2017-11-25T15:46:18.618Z,99641.94
2017-11-25T15:47:23.924Z,99645.97
2017-11-25T15:48:28.598Z,99648.69
2017-11-25T15:49:34.867Z,99651.39
2017-11-25T15:50:39.746Z,99654.03
2017-11-25T15:51:44.470Z,99653.27
2017-11-25T15:52:48.976Z,99654.66
2017-11-25T15:53:53.437Z,99657.81
2017-11-25T15:54:57.995Z,99660.88
2017-11-25T15:56:02.328Z,99664.05
2017-11-25T15:57:07.156Z,99668.80
2017-11-25T15:58:12.992Z,99676.23
2017-11-25T15:59:18.327Z,99681.44
2017-11-25T16:00:24.679Z,99683.73
2017-11-25T16:01:29.804Z,99692.12
2017-11-25T16:02:35.147Z,99694.83
2017-11-25T16:03:41.131Z,99705.39
2017-11-25T16:04:45.697Z,99705.11
2017-11-25T16:05:51.129Z,99714.48
2017-11-25T16:06:56.531Z,99710.14
2017-11-25T16:08:01.007Z,99712.93
2017-11-25T16:09:05.845Z,99708.61
2017-11-25T16:10:10.369Z,99716.12
2017-11-25T16:11:15.536Z,99716.03
2017-11-25T16:12:21.255Z,99724.05
2017-11-25T16:13:26.955Z,99720.51
2017-11-25T16:14:31.912Z,99726.11
2017-11-25T16:15:36.565Z,99725.77
2017-11-25T16:16:41.808Z,99727.10
2017-11-25T16:17:46.203Z,99730.22
2017-11-25T16:18:50.698Z,99735.77
2017-11-25T16:19:55.232Z,99738.70
2017-11-25T16:20:59.832Z,99738.20
2017-11-25T16:22:05.069Z,99741.34
2017-11-25T16:23:09.693Z,99743.47
2017-11-25T16:24:14.507Z,99753.54
2017-11-25T16:25:19.423Z,99761.33
2017-11-25T16:26:24.610Z,99756.06
2017-11-25T16:27:29.318Z,99761.80
2017-11-25T16:28:34.492Z,99756.26
2017-11-25T16:29:39.114Z,99759.34
2017-11-25T16:30:45.163Z,99766.98
2017-11-25T16:31:50.714Z,99766.58
2017-11-25T16:32:56.020Z,99766.21
2017-11-25T16:34:01.248Z,99768.41
2017-11-25T16:35:05.522Z,99761.44
2017-11-25T16:36:10.477Z,99769.30
2017-11-25T16:37:15.833Z,99765.02
2017-11-25T16:38:21.348Z,99767.41
2017-11-25T16:39:26.488Z,99766.20
2017-11-25T16:40:31.980Z,99770.87
2017-11-25T16:41:36.524Z,99768.61
2017-11-25T16:42:41.698Z,99774.66
2017-11-25T16:43:46.065Z,99775.80
2017-11-25T16:44:50.307Z,99776.48
2017-11-25T16:45:54.800Z,99768.56
2017-11-25T16:47:00.109Z,99772.09
2017-11-25T16:48:15.937Z,99773.53
2017-11-25T16:49:21.069Z,99774.28
2017-11-25T16:50:25.489Z,99777.75
2017-11-25T16:51:29.831Z,99777.81
2017-11-25T16:52:34.978Z,99784.45
2017-11-25T16:53:40.287Z,99775.32
2017-11-25T16:54:46.954Z,99774.09
2017-11-25T16:55:51.203Z,99774.23
2017-11-25T16:56:57.847Z,99777.77
2017-11-25T16:58:02.651Z,99776.09
2017-11-25T16:59:07.768Z,99781.33
2017-11-25T17:00:12.925Z,99784.02
2017-11-25T17:01:17.994Z,99783.45
2017-11-25T17:02:22.175Z,99784.44
2017-11-25T17:03:26.362Z,99783.42
2017-11-25T17:04:31.398Z,99782.52
2017-11-25T17:05:35.551Z,99790.58
2017-11-25T17:06:40.658Z,99789.09
2017-11-25T17:07:44.920Z,99795.48
2017-11-25T17:08:49.605Z,99790.80
2017-11-25T17:09:53.940Z,99790.86
2017-11-25T17:10:58.250Z,99794.45
2017-11-25T17:12:02.603Z,99799.60
2017-11-25T17:13:06.870Z,99798.56
2017-11-25T17:14:11.204Z,99798.64
2017-11-25T17:15:15.758Z,99800.06
2017-11-25T17:16:20.064Z,99801.17
2017-11-25T17:17:24.269Z,99796.93
2017-11-25T17:18:29.334Z,99800.08
2017-11-25T17:19:34.009Z,99801.30
2017-11-25T17:20:39.116Z,99802.19
2017-11-25T17:21:44.161Z,99808.69
2017-11-25T17:22:48.468Z,99806.80
2017-11-25T17:23:53.225Z,99809.34
2017-11-25T17:24:58.007Z,99807.62
2017-11-25T17:26:04.177Z,99803.77
2017-11-25T17:27:08.510Z,99804.38
2017-11-25T17:28:13.693Z,99803.64
2017-11-25T17:29:19.123Z,99804.09
2017-11-25T17:30:24.769Z,99805.37
2017-11-25T17:31:29.977Z,99806.70
2017-11-25T17:32:35.266Z,99811.09
2017-11-25T17:33:39.847Z,99819.04
2017-11-25T17:34:44.460Z,99815.00
2017-11-25T17:35:49.885Z,99818.10
2017-11-25T17:36:55.219Z,99819.04
2017-11-25T17:38:01.172Z,99827.39
2017-11-25T17:39:06.472Z,99824.34
2017-11-25T17:40:11.007Z,99832.97
2017-11-25T17:41:18.244Z,99836.42
2017-11-25T17:42:22.855Z,99832.12
2017-11-25T17:43:28.083Z,99841.02
2017-11-25T17:44:32.945Z,99847.59
2017-11-25T17:45:37.869Z,99851.59
2017-11-25T17:46:44.371Z,99845.53
2017-11-25T17:47:50.058Z,99849.88
2017-11-25T17:48:54.996Z,99854.69
2017-11-25T17:50:00.361Z,99859.30
2017-11-25T17:51:05.248Z,99863.31
2017-11-25T17:52:10.676Z,99856.33
2017-11-25T17:53:15.861Z,99861.55
2017-11-25T17:54:21.241Z,99861.08
2017-11-25T17:55:26.711Z,99868.38
2017-11-25T17:56:31.329Z,99868.52
2017-11-25T17:57:35.797Z,99862.08
2017-11-25T17:58:41.324Z,99872.56
2017-11-25T17:59:47.142Z,99876.02
2017-11-25T18:00:52.406Z,99882.30
2017-11-25T18:01:57.910Z,99881.87
2017-11-25T18:03:02.593Z,99881.74
2017-11-25T18:04:07.117Z,99880.98
2017-11-25T18:05:12.449Z,99879.64
2017-11-25T18:06:21.119Z,99879.69
2017-11-25T18:07:26.650Z,99883.64
2017-11-25T18:08:31.878Z,99878.12
2017-11-25T18:09:37.147Z,99882.05
2017-11-25T18:10:41.721Z,99883.31
2017-11-25T18:11:46.971Z,99881.27
2017-11-25T18:12:52.177Z,99879.98
2017-11-25T18:13:56.763Z,99880.41
2017-11-25T18:15:01.320Z,99879.97
2017-11-25T18:16:08.089Z,99884.29
2017-11-25T18:17:12.532Z,99887.84
2017-11-25T18:18:17.915Z,99886.62
2017-11-25T18:19:22.400Z,99888.30
2017-11-25T18:20:27.346Z,99895.30
2017-11-25T18:21:32.688Z,99886.39
2017-11-25T18:22:41.172Z,99888.19
2017-11-25T18:23:47.009Z,99886.19
2017-11-25T18:24:51.544Z,99893.14
2017-11-25T18:25:57.639Z,99890.52
2017-11-25T18:27:02.833Z,99895.14
2017-11-25T18:28:08.929Z,99889.94
2017-11-25T18:29:14.517Z,99889.39
2017-11-25T18:30:19.357Z,99887.27
2017-11-25T18:31:25.073Z,99894.67
2017-11-25T18:32:30.674Z,99893.52
2017-11-25T18:33:35.249Z,99897.05
2017-11-25T18:34:39.948Z,99889.34
2017-11-25T18:35:45.334Z,99896.31
2017-11-25T18:36:51.218Z,99896.80
2017-11-25T18:37:56.855Z,99896.74
2017-11-25T18:39:02.320Z,99904.27
2017-11-25T18:40:06.902Z,99903.41
2017-11-25T18:41:11.930Z,99904.29
2017-11-25T18:42:17.381Z,99902.36
2017-11-25T18:43:21.910Z,99908.81
2017-11-25T18:44:27.515Z,99908.95
2017-11-25T18:45:33.768Z,99912.95
2017-11-25T18:46:39.114Z,99915.20
2017-11-25T18:47:44.079Z,99921.39
2017-11-25T18:48:49.556Z,99927.52
2017-11-25T18:49:54.811Z,99915.27
2017-11-25T18:50:59.334Z,99927.89
2017-11-25T18:52:04.027Z,99928.55
2017-11-25T18:53:10.831Z,99927.02
2017-11-25T18:54:15.313Z,99930.92
2017-11-25T18:55:20.113Z,99929.66
2017-11-25T18:56:25.472Z,99927.63
2017-11-25T18:57:30.051Z,99928.29
2017-11-25T18:58:35.034Z,99928.31
2017-11-25T18:59:41.134Z,99933.46
2017-11-25T19:00:46.668Z,99932.20
2017-11-25T19:01:51.999Z,99931.86
2017-11-25T19:02:57.317Z,99932.63
2017-11-25T19:04:02.878Z,99928.69
2017-11-25T19:05:07.998Z,99935.96
2017-11-25T19:06:12.517Z,99935.64
2017-11-25T19:07:17.353Z,99932.61
2017-11-25T19:08:22.872Z,99934.03
2017-11-25T19:09:29.534Z,99936.22
2017-11-25T19:10:35.076Z,99933.63
2017-11-25T19:11:39.833Z,99935.33
2017-11-25T19:12:44.505Z,99933.10
2017-11-25T19:13:49.620Z,99936.95
2017-11-25T19:14:54.955Z,99927.38
2017-11-25T19:15:59.471Z,99927.81
2017-11-25T19:17:05.720Z,99929.89
2017-11-25T19:18:11.049Z,99930.27
2017-11-25T19:19:16.430Z,99934.13
2017-11-25T19:20:20.999Z,99935.76
2017-11-25T19:21:26.326Z,99940.50
2017-11-25T19:22:32.003Z,99940.63
2017-11-25T19:23:36.491Z,99935.43
2017-11-25T19:24:42.110Z,99937.58
2017-11-25T19:25:46.656Z,99941.84
2017-11-25T19:26:51.402Z,99935.27
2017-11-25T19:27:57.520Z,99943.80
2017-11-25T19:29:02.929Z,99937.27
2017-11-25T19:30:08.663Z,99942.42
2017-11-25T19:31:13.685Z,99945.49
2017-11-25T19:32:18.822Z,99952.77
2017-11-25T19:33:25.428Z,99953.69
2017-11-25T19:34:30.104Z,99951.14
2017-11-25T19:35:35.593Z,99952.82
2017-11-25T19:36:41.073Z,99959.34
2017-11-25T19:37:47.020Z,99959.85
2017-11-25T19:38:53.170Z,99956.41
2017-11-25T19:39:58.349Z,99967.14
2017-11-25T19:41:03.571Z,99963.70
2017-11-25T19:42:09.679Z,99968.97
2017-11-25T19:43:15.166Z,99976.41
2017-11-25T19:44:19.754Z,99972.21
2017-11-25T19:45:24.248Z,99976.17
2017-11-25T19:46:30.487Z,99972.23
2017-11-25T19:47:35.877Z,99977.50
2017-11-25T19:48:40.539Z,99985.00
2017-11-25T19:49:46.276Z,99983.45
2017-11-25T19:50:52.441Z,99983.13
2017-11-25T19:51:57.935Z,99983.17
2017-11-25T19:53:02.506Z,99981.95
2017-11-25T19:54:06.993Z,99985.92
2017-11-25T19:55:12.319Z,99986.43
2017-11-25T19:56:16.868Z,99982.67
2017-11-25T19:57:21.548Z,99980.52
2017-11-25T19:58:26.879Z,99988.30
2017-11-25T19:59:32.116Z,99974.86
2017-11-25T20:00:37.869Z,99982.36
2017-11-25T20:01:43.045Z,99982.98
2017-11-25T20:02:48.409Z,99982.19
2017-11-25T20:03:53.667Z,99982.78
2017-11-25T20:04:58.140Z,99985.91
2017-11-25T20:06:02.663Z,99982.14
2017-11-25T20:07:08.405Z,99986.08
2017-11-25T20:08:13.945Z,99991.28
2017-11-25T20:09:19.182Z,99987.81
2017-11-25T20:10:25.369Z,99991.75
2017-11-25T20:11:30.652Z,99997.02
2017-11-25T20:12:36.378Z,99995.77
2017-11-25T20:13:40.980Z,99997.59
2017-11-25T20:14:47.364Z,99998.46
2017-11-25T20:15:53.192Z,100001.82
2017-11-25T20:16:58.455Z,100007.49
2017-11-25T20:18:02.924Z,100012.31
2017-11-25T20:19:08.808Z,100004.09
2017-11-25T20:20:13.407Z,100009.75
2017-11-25T20:21:18.696Z,100015.88
2017-11-25T20:22:24.710Z,100016.69
2017-11-25T20:23:29.283Z,100020.56
2017-11-25T20:24:34.165Z,100015.78
2017-11-25T20:25:39.539Z,100018.09
2017-11-25T20:26:46.727Z,100018.08
2017-11-25T20:27:52.754Z,100024.07
2017-11-25T20:28:58.752Z,100027.61
2017-11-25T20:30:03.649Z,100028.92
2017-11-25T20:31:09.771Z,100025.88
2017-11-25T20:32:14.213Z,100024.09
2017-11-25T20:33:20.332Z,100027.98
2017-11-25T20:34:24.867Z,100023.27
2017-11-25T20:35:33.594Z,100028.07
2017-11-25T20:36:38.916Z,100032.09
2017-11-25T20:37:44.445Z,100030.30
2017-11-25T20:38:50.440Z,100033.24
2017-11-25T20:39:55.280Z,100035.33
2017-11-25T20:40:59.797Z,100042.22
2017-11-25T20:42:04.291Z,100034.39
2017-11-25T20:43:08.766Z,100043.84
2017-11-25T20:44:13.279Z,100043.80
2017-11-25T20:45:19.157Z,100046.34
2017-11-25T20:46:23.677Z,100052.77
2017-11-25T20:47:28.135Z,100052.81
2017-11-25T20:48:34.383Z,100051.46
2017-11-25T20:49:39.712Z,100054.58
2017-11-25T20:50:45.062Z,100056.21
2017-11-25T20:51:49.676Z,100063.91
2017-11-25T20:52:55.103Z,100062.08
2017-11-25T20:54:00.430Z,100058.18
2017-11-25T20:55:04.895Z,100055.92
2017-11-25T20:56:10.776Z,100053.80
2017-11-25T20:57:16.346Z,100053.28
2017-11-25T20:58:20.954Z,100057.14
2017-11-25T20:59:25.423Z,100051.52
2017-11-25T21:00:29.890Z,100051.97
2017-11-25T21:01:36.116Z,100051.52
2017-11-25T21:02:41.607Z,100057.45
2017-11-25T21:03:46.221Z,100054.12
2017-11-25T21:04:51.926Z,100053.23
2017-11-25T21:05:57.130Z,100051.05
2017-11-25T21:07:02.527Z,100051.86
2017-11-25T21:08:07.805Z,100062.15
2017-11-25T21:09:13.185Z,100057.81
2017-11-25T21:10:17.942Z,100059.98
2017-11-25T21:11:23.272Z,100053.50
2017-11-25T21:12:28.527Z,100051.80
2017-11-25T21:13:33.043Z,100056.45
2017-11-25T21:14:38.755Z,100052.98
2017-11-25T21:15:44.014Z,100055.08
2017-11-25T21:16:49.519Z,100057.23
2017-11-25T21:17:54.827Z,100055.94
2017-11-25T21:19:00.049Z,100056.31
2017-11-25T21:20:04.557Z,100057.56
2017-11-25T21:21:09.006Z,100060.20
2017-11-25T21:22:14.236Z,100059.68
2017-11-25T21:23:19.450Z,100051.91
2017-11-25T21:24:25.385Z,100058.10
2017-11-25T21:25:30.843Z,100061.91
2017-11-25T21:26:36.107Z,100063.58
2017-11-25T21:27:40.701Z,100066.64
2017-11-25T21:28:45.862Z,100064.45
2017-11-25T21:29:50.405Z,100068.27
2017-11-25T21:30:55.063Z,100064.42
2017-11-25T21:31:59.505Z,100066.10
2017-11-25T21:33:04.098Z,100064.06
2017-11-25T21:34:08.665Z,100070.53
2017-11-25T21:35:14.728Z,100072.24
2017-11-25T21:36:19.985Z,100070.98
2017-11-25T21:37:24.421Z,100070.14
2017-11-25T21:38:28.899Z,100072.26
2017-11-25T21:39:33.366Z,100079.09
2017-11-25T21:40:38.742Z,100078.72
2017-11-25T21:41:43.154Z,100077.44
2017-11-25T21:42:47.685Z,100079.07
2017-11-25T21:43:52.384Z,100077.28
2017-11-25T21:44:56.898Z,100081.14
2017-11-25T21:46:01.388Z,100083.31
2017-11-25T21:47:06.985Z,100081.96
2017-11-25T21:48:11.880Z,100085.06
2017-11-25T21:49:16.395Z,100076.01
2017-11-25T21:50:20.865Z,100085.95
2017-11-25T21:51:26.175Z,100086.41
2017-11-25T21:52:30.734Z,100089.46
2017-11-25T21:53:36.992Z,100095.00
2017-11-25T21:54:41.436Z,100091.91
2017-11-25T21:55:46.512Z,100092.33
2017-11-25T21:56:51.246Z,100097.19
2017-11-25T21:57:55.687Z,100096.25
2017-11-25T21:59:01.094Z,100101.95
2017-11-25T22:00:05.585Z,100094.59
2017-11-25T22:01:10.108Z,100092.33
2017-11-25T22:02:14.707Z,100097.97
2017-11-25T22:03:19.163Z,100102.39
2017-11-25T22:04:23.701Z,100103.32
2017-11-25T22:05:28.492Z,100106.86
2017-11-25T22:06:33.063Z,100106.94
2017-11-25T22:07:38.700Z,100107.33
2017-11-25T22:08:43.936Z,100100.44
2017-11-25T22:09:48.444Z,100108.77
2017-11-25T22:10:53.833Z,100117.11
2017-11-25T22:11:58.284Z,100119.00
2017-11-25T22:13:04.263Z,100116.52
2017-11-25T22:14:08.783Z,100116.02
2017-11-25T22:15:13.217Z,100115.20
2017-11-25T22:16:19.135Z,100116.06
2017-11-25T22:17:24.479Z,100114.43
2017-11-25T22:18:28.932Z,100114.89
2017-11-25T22:19:34.683Z,100109.22
2017-11-25T22:20:39.181Z,100110.58
2017-11-25T22:21:43.596Z,100111.52
2017-11-25T22:22:49.463Z,100110.30
2017-11-25T22:23:54.878Z,100116.06
2017-11-25T22:24:59.547Z,100115.28
2017-11-25T22:26:05.527Z,100115.23
2017-11-25T22:27:10.642Z,100120.95
2017-11-25T22:28:15.243Z,100119.37
2017-11-25T22:29:21.434Z,100122.06
2017-11-25T22:30:27.350Z,100120.38
2017-11-25T22:31:32.602Z,100126.06
2017-11-25T22:32:36.998Z,100125.24
2017-11-25T22:33:41.478Z,100120.95
2017-11-25T22:34:46.003Z,100119.28
2017-11-25T22:35:50.448Z,100121.50
2017-11-25T22:36:56.197Z,100122.83
2017-11-25T22:38:02.009Z,100125.73
2017-11-25T22:39:08.118Z,100117.92
2017-11-25T22:40:12.710Z,100124.39
2017-11-25T22:41:17.219Z,100126.05
2017-11-25T22:42:22.749Z,100116.92
2017-11-25T22:43:27.040Z,100120.72
2017-11-25T22:44:31.484Z,100120.27
2017-11-25T22:45:36.847Z,100127.63
2017-11-25T22:46:41.359Z,100119.42
2017-11-25T22:47:45.749Z,100119.37
2017-11-25T22:48:50.103Z,100117.59
2017-11-25T22:49:54.447Z,100121.05
2017-11-25T22:51:01.206Z,100122.27
2017-11-25T22:52:07.203Z,100123.09
2017-11-25T22:53:11.679Z,100121.77
2017-11-25T22:54:15.989Z,100122.55
2017-11-25T22:55:20.336Z,100121.23
2017-11-25T22:56:24.685Z,100122.98
2017-11-25T22:57:29.664Z,100120.83
2017-11-25T22:58:34.617Z,100123.02
2017-11-25T22:59:39.674Z,100122.66
2017-11-25T23:00:44.876Z,100126.14
2017-11-25T23:01:50.370Z,100126.61
2017-11-25T23:02:56.425Z,100129.20
2017-11-25T23:04:01.487Z,100126.25
2017-11-25T23:05:07.964Z,100128.86
2017-11-25T23:06:12.300Z,100130.16
2017-11-25T23:07:16.744Z,100123.60
2017-11-25T23:08:21.783Z,100128.42
2017-11-25T23:09:27.981Z,100125.33
2017-11-25T23:10:37.983Z,100136.10
2017-11-25T23:11:44.799Z,100132.60
2017-11-25T23:12:49.470Z,100132.58
2017-11-25T23:13:54.016Z,100134.63
2017-11-25T23:14:58.294Z,100135.89
2017-11-25T23:16:03.528Z,100132.78
2017-11-25T23:17:08.166Z,100131.93
2017-11-25T23:18:13.860Z,100136.23
2017-11-25T23:19:18.324Z,100132.34
2017-11-25T23:20:24.183Z,100134.08
2017-11-25T23:21:28.416Z,100136.55
2017-11-25T23:22:32.651Z,100135.63
2017-11-25T23:23:36.874Z,100142.53
2017-11-25T23:24:41.287Z,100138.13
2017-11-25T23:25:45.769Z,100145.47
2017-11-25T23:26:50.823Z,100141.11
2017-11-25T23:27:55.164Z,100144.47
2017-11-25T23:28:59.507Z,100140.09
2017-11-25T23:30:03.773Z,100149.22
2017-11-25T23:31:08.043Z,100141.95
2017-11-25T23:32:12.975Z,100149.73
2017-11-25T23:33:17.139Z,100149.69
2017-11-25T23:34:21.331Z,100147.56
2017-11-25T23:35:25.490Z,100151.92
2017-11-25T23:36:30.406Z,100151.05
2017-11-25T23:37:34.575Z,100151.53
2017-11-25T23:38:38.735Z,100149.45
2017-11-25T23:39:42.927Z,100148.33
2017-11-25T23:40:47.088Z,100150.63
2017-11-25T23:41:51.241Z,100145.95
2017-11-25T23:42:55.406Z,100147.39
2017-11-25T23:44:00.752Z,100151.35
2017-11-25T23:46:21.048Z,100149.66
2017-11-25T23:47:26.775Z,100155.33
2017-11-25T23:48:32.554Z,100153.67
2017-11-25T23:49:39.045Z,100149.90
2017-11-25T23:50:45.527Z,100157.84
2017-11-25T23:51:51.198Z,100146.34
2017-11-25T23:52:56.923Z,100154.61
2017-11-25T23:54:02.635Z,100155.14
2017-11-25T23:55:08.154Z,100155.30
2017-11-25T23:56:13.900Z,100153.66
2017-11-25T23:57:19.658Z,100157.72
2017-11-25T23:58:25.404Z,100157.73
2017-11-25T23:59:31.119Z,100159.48
